createdAt,value
2022-12-27T00:00:31.341Z,97191.78
2022-12-27T00:02:03.668Z,97189.00
2022-12-27T00:03:35.281Z,97195.13
2022-12-27T00:05:08.268Z,97195.44
2022-12-27T00:06:39.885Z,97195.56
2022-12-27T00:08:11.506Z,97194.28
2022-12-27T00:09:44.491Z,97196.81
2022-12-27T00:11:16.970Z,97197.78
2022-12-27T00:12:48.584Z,97196.50
2022-12-27T00:14:20.193Z,97191.09
2022-12-27T00:15:51.838Z,97199.66
2022-12-27T00:17:23.439Z,97196.22
2022-12-27T00:18:55.204Z,97193.09
2022-12-27T00:20:26.791Z,97199.84
2022-12-27T00:21:58.401Z,97197.97
2022-12-27T00:23:31.356Z,97204.66
2022-12-27T00:25:05.101Z,97197.38
2022-12-27T00:26:36.853Z,97203.88
2022-12-27T00:28:08.449Z,97202.00
2022-12-27T00:29:40.070Z,97206.03
2022-12-27T00:31:11.800Z,97207.13
2022-12-27T00:32:43.466Z,97210.41
2022-12-27T00:34:15.066Z,97219.44
2022-12-27T00:35:46.683Z,97231.94
2022-12-27T00:37:18.339Z,97230.38
2022-12-27T00:38:50.108Z,97234.09
2022-12-27T00:40:23.081Z,97230.38
2022-12-27T00:41:54.774Z,97239.13
2022-12-27T00:43:26.426Z,97240.69
2022-12-27T00:44:58.090Z,97237.72
2022-12-27T00:46:29.691Z,97234.75
2022-12-27T00:48:01.343Z,97230.25
2022-12-27T00:49:32.977Z,97229.47
2022-12-27T00:51:05.732Z,97242.91
2022-12-27T00:52:37.376Z,97245.09
2022-12-27T00:54:09.081Z,97246.66
2022-12-27T00:55:43.783Z,97253.47
2022-12-27T00:57:15.427Z,97253.16
2022-12-27T00:58:47.231Z,97254.25
2022-12-27T01:00:19.042Z,97253.78
2022-12-27T01:01:50.834Z,97254.25
2022-12-27T01:03:22.645Z,97260.78
2022-12-27T01:04:55.036Z,97257.28
2022-12-27T01:06:28.950Z,97259.63
2022-12-27T01:08:00.662Z,97266.50
2022-12-27T01:09:32.276Z,97268.97
2022-12-27T01:11:05.551Z,97271.63
2022-12-27T01:12:37.175Z,97270.84
2022-12-27T01:14:09.814Z,97277.53
2022-12-27T01:15:41.965Z,97272.81
2022-12-27T01:17:13.557Z,97277.63
2022-12-27T01:18:45.404Z,97276.94
2022-12-27T01:20:17.185Z,97287.97
2022-12-27T01:21:48.809Z,97286.72
2022-12-27T01:23:20.454Z,97285.94
2022-12-27T01:24:52.086Z,97290.16
2022-12-27T01:26:25.230Z,97292.00
2022-12-27T01:27:56.869Z,97291.22
2022-12-27T01:29:28.533Z,97292.91
2022-12-27T01:31:04.765Z,97298.59
2022-12-27T01:32:36.408Z,97299.19
2022-12-27T01:34:08.043Z,97295.44
2022-12-27T01:35:39.719Z,97295.25
2022-12-27T01:37:11.391Z,97296.03
2022-12-27T01:38:43.297Z,97302.13
2022-12-27T01:40:14.947Z,97312.56
2022-12-27T01:42:06.685Z,97314.25
2022-12-27T01:43:38.333Z,97312.06
2022-12-27T01:45:13.733Z,97319.06
2022-12-27T01:46:45.365Z,97320.03
2022-12-27T01:48:19.188Z,97329.66
2022-12-27T01:49:56.498Z,97322.19
2022-12-27T01:51:28.130Z,97332.31
2022-12-27T01:53:04.104Z,97324.34
2022-12-27T01:54:35.710Z,97328.38
2022-12-27T01:56:09.435Z,97334.84
2022-12-27T01:57:42.420Z,97332.69
2022-12-27T01:59:14.029Z,97343.59
2022-12-27T02:00:46.549Z,97344.69
2022-12-27T02:02:18.379Z,97345.56
2022-12-27T02:03:52.078Z,97350.66
2022-12-27T02:05:24.562Z,97350.66
2022-12-27T02:06:56.194Z,97346.84
2022-12-27T02:08:35.395Z,97349.00
2022-12-27T02:10:07.484Z,97352.25
2022-12-27T02:11:59.566Z,97360.78
2022-12-27T02:13:33.970Z,97358.94
2022-12-27T02:15:08.369Z,97357.91
2022-12-27T02:16:40.079Z,97367.72
2022-12-27T02:18:11.709Z,97379.97
2022-12-27T02:19:50.167Z,97368.38
2022-12-27T02:21:40.662Z,97373.03
2022-12-27T02:23:52.481Z,97378.31
2022-12-27T02:25:32.682Z,97380.25
2022-12-27T02:27:04.740Z,97375.53
2022-12-27T02:28:55.279Z,97373.97
2022-12-27T02:30:26.984Z,97377.69
2022-12-27T02:32:01.224Z,97385.53
2022-12-27T02:33:34.379Z,97381.03
2022-12-27T02:35:09.480Z,97375.16
2022-12-27T02:36:41.365Z,97381.41
2022-12-27T02:38:15.228Z,97374.84
2022-12-27T02:39:47.533Z,97372.97
2022-12-27T02:41:38.023Z,97380.63
2022-12-27T02:43:28.010Z,97376.81
2022-12-27T02:45:20.253Z,97384.34
2022-12-27T02:47:10.535Z,97382.84
2022-12-27T02:49:10.458Z,97378.22
2022-12-27T02:51:07.739Z,97379.09
2022-12-27T02:53:00.877Z,97375.06
2022-12-27T02:54:41.965Z,97371.47
2022-12-27T02:56:37.680Z,97377.34
2022-12-27T02:58:22.763Z,97371.06
2022-12-27T03:00:22.633Z,97374.97
2022-12-27T03:02:17.459Z,97384.88
2022-12-27T03:03:56.567Z,97380.06
2022-12-27T03:05:31.402Z,97383.59
2022-12-27T03:07:16.181Z,97389.41
2022-12-27T03:08:51.497Z,97394.38
2022-12-27T03:10:55.928Z,97403.66
2022-12-27T03:12:53.203Z,97403.00
2022-12-27T03:14:45.051Z,97403.88
2022-12-27T03:16:22.522Z,97413.91
2022-12-27T03:17:56.791Z,97422.13
2022-12-27T03:19:47.378Z,97424.94
2022-12-27T03:21:39.488Z,97425.56
2022-12-27T03:23:29.913Z,97428.28
2022-12-27T03:25:19.926Z,97427.63
2022-12-27T03:26:51.517Z,97432.34
2022-12-27T03:28:43.228Z,97448.09
2022-12-27T03:30:33.556Z,97450.25
2022-12-27T03:32:27.208Z,97446.44
2022-12-27T03:34:21.867Z,97445.38
2022-12-27T03:36:13.169Z,97455.38
2022-12-27T03:38:05.114Z,97460.84
2022-12-27T03:39:36.857Z,97457.41
2022-12-27T03:41:27.237Z,97452.03
2022-12-27T03:43:10.920Z,97448.88
2022-12-27T03:44:42.560Z,97444.59
2022-12-27T03:46:36.529Z,97447.13
2022-12-27T03:48:10.562Z,97443.19
2022-12-27T03:49:44.127Z,97441.06
2022-12-27T03:51:15.765Z,97439.09
2022-12-27T03:52:48.788Z,97449.66
2022-12-27T03:54:26.468Z,97449.59
2022-12-27T03:55:58.239Z,97455.53
2022-12-27T03:57:30.570Z,97454.47
2022-12-27T03:59:02.221Z,97458.75
2022-12-27T04:00:33.873Z,97459.34
2022-12-27T04:02:08.187Z,97465.13
2022-12-27T04:03:41.360Z,97470.06
2022-12-27T04:05:13.041Z,97462.69
2022-12-27T04:06:44.635Z,97461.44
2022-12-27T04:08:34.776Z,97461.66
2022-12-27T04:10:25.314Z,97465.88
2022-12-27T04:12:15.568Z,97455.94
2022-12-27T04:14:10.496Z,97460.16
2022-12-27T04:16:00.926Z,97465.72
2022-12-27T04:17:51.361Z,97467.47
2022-12-27T04:19:43.109Z,97462.81
2022-12-27T04:21:33.533Z,97462.44
2022-12-27T04:23:23.827Z,97463.31
2022-12-27T04:25:14.114Z,97464.94
2022-12-27T04:27:04.373Z,97466.78
2022-12-27T04:28:54.703Z,97469.59
2022-12-27T04:30:45.105Z,97467.94
2022-12-27T04:32:35.393Z,97466.72
2022-12-27T04:34:25.753Z,97469.88
2022-12-27T04:36:04.324Z,97467.16
2022-12-27T04:37:37.702Z,97467.84
2022-12-27T04:39:09.284Z,97474.88
2022-12-27T04:40:59.746Z,97484.31
2022-12-27T04:42:49.926Z,97476.22
2022-12-27T04:44:40.394Z,97473.91
2022-12-27T04:46:31.864Z,97476.13
2022-12-27T04:48:22.235Z,97483.94
2022-12-27T04:50:12.591Z,97480.81
2022-12-27T04:52:04.204Z,97485.03
2022-12-27T04:53:54.507Z,97486.72
2022-12-27T04:55:28.192Z,97482.69
2022-12-27T04:56:59.826Z,97480.66
2022-12-27T04:58:31.484Z,97475.31
2022-12-27T05:00:22.159Z,97472.16
2022-12-27T05:02:05.871Z,97464.41
2022-12-27T05:03:37.830Z,97461.25
2022-12-27T05:05:09.696Z,97460.72
2022-12-27T05:06:41.344Z,97461.03
2022-12-27T05:08:33.068Z,97457.19
2022-12-27T05:10:24.726Z,97472.06
2022-12-27T05:12:15.280Z,97474.97
2022-12-27T05:13:59.704Z,97482.41
2022-12-27T05:15:31.321Z,97479.59
2022-12-27T05:17:02.942Z,97479.72
2022-12-27T05:18:34.636Z,97483.03
2022-12-27T05:20:07.565Z,97473.16
2022-12-27T05:21:39.533Z,97472.78
2022-12-27T05:23:29.929Z,97466.88
2022-12-27T05:25:21.396Z,97460.97
2022-12-27T05:26:55.648Z,97462.16
2022-12-27T05:28:27.255Z,97464.47
2022-12-27T05:29:58.950Z,97462.84
2022-12-27T05:31:30.657Z,97457.84
2022-12-27T05:33:02.342Z,97463.53
2022-12-27T05:34:33.956Z,97469.25
2022-12-27T05:36:06.678Z,97474.34
2022-12-27T05:37:38.288Z,97477.78
2022-12-27T05:39:09.929Z,97484.88
2022-12-27T05:40:42.889Z,97491.19
2022-12-27T05:42:14.546Z,97479.81
2022-12-27T05:43:46.213Z,97485.31
2022-12-27T05:45:18.097Z,97486.16
2022-12-27T05:46:49.763Z,97475.94
2022-12-27T05:48:21.585Z,97481.00
2022-12-27T05:49:53.294Z,97485.91
2022-12-27T05:51:24.942Z,97490.94
2022-12-27T05:52:56.960Z,97492.66
2022-12-27T05:54:28.582Z,97492.31
2022-12-27T05:56:01.601Z,97485.28
2022-12-27T05:57:33.361Z,97473.91
2022-12-27T05:59:05.494Z,97476.38
2022-12-27T06:00:37.151Z,97480.22
2022-12-27T06:02:08.916Z,97482.69
2022-12-27T06:03:40.711Z,97475.03
2022-12-27T06:05:12.497Z,97478.69
2022-12-27T06:06:44.197Z,97477.00
2022-12-27T06:08:15.837Z,97471.16
2022-12-27T06:09:47.516Z,97477.28
2022-12-27T06:11:20.596Z,97480.31
2022-12-27T06:12:52.214Z,97487.25
2022-12-27T06:14:23.826Z,97489.84
2022-12-27T06:15:55.463Z,97487.06
2022-12-27T06:17:27.216Z,97486.00
2022-12-27T06:18:58.861Z,97482.69
2022-12-27T06:20:30.613Z,97485.50
2022-12-27T06:22:02.243Z,97487.41
2022-12-27T06:23:34.161Z,97499.34
2022-12-27T06:25:10.822Z,97495.19
2022-12-27T06:27:28.257Z,97491.97
2022-12-27T06:29:29.748Z,97505.47
2022-12-27T06:31:17.928Z,97509.69
2022-12-27T06:32:49.630Z,97507.84
2022-12-27T06:34:21.337Z,97502.63
2022-12-27T06:35:52.977Z,97506.47
2022-12-27T06:37:24.637Z,97505.97
2022-12-27T06:38:56.252Z,97511.28
2022-12-27T06:40:27.940Z,97506.47
2022-12-27T06:42:01.028Z,97506.84
2022-12-27T06:43:32.734Z,97515.84
2022-12-27T06:45:06.493Z,97515.25
2022-12-27T06:46:38.233Z,97511.28
2022-12-27T06:48:09.851Z,97512.56
2022-12-27T06:49:41.507Z,97506.53
2022-12-27T06:51:13.592Z,97511.28
2022-12-27T06:52:45.211Z,97502.31
2022-12-27T06:54:16.884Z,97515.66
2022-12-27T06:55:48.608Z,97513.25
2022-12-27T06:57:21.662Z,97510.59
2022-12-27T06:58:53.939Z,97507.13
2022-12-27T07:00:25.514Z,97504.41
2022-12-27T07:01:57.320Z,97509.41
2022-12-27T07:03:29.135Z,97513.16
2022-12-27T07:05:00.861Z,97510.47
2022-12-27T07:06:32.804Z,97514.47
2022-12-27T07:08:04.491Z,97517.63
2022-12-27T07:09:36.185Z,97513.63
2022-12-27T07:11:09.068Z,97514.38
2022-12-27T07:12:42.161Z,97508.78
2022-12-27T07:14:14.283Z,97518.34
2022-12-27T07:15:45.932Z,97520.53
2022-12-27T07:17:17.554Z,97512.63
2022-12-27T07:18:50.045Z,97520.25
2022-12-27T07:20:22.049Z,97520.50
2022-12-27T07:21:53.751Z,97522.00
2022-12-27T07:23:25.507Z,97519.38
2022-12-27T07:24:57.260Z,97520.44
2022-12-27T07:26:30.246Z,97522.00
2022-12-27T07:28:03.524Z,97527.94
2022-12-27T07:29:37.942Z,97529.50
2022-12-27T07:31:12.884Z,97525.44
2022-12-27T07:32:44.801Z,97529.09
2022-12-27T07:34:16.397Z,97524.84
2022-12-27T07:35:48.032Z,97530.13
2022-12-27T07:37:20.617Z,97533.31
2022-12-27T07:38:52.264Z,97538.84
2022-12-27T07:40:23.919Z,97543.63
2022-12-27T07:41:55.696Z,97545.25
2022-12-27T07:43:30.659Z,97542.56
2022-12-27T07:45:02.502Z,97547.06
2022-12-27T07:46:34.291Z,97552.34
2022-12-27T07:48:06.503Z,97549.41
2022-12-27T07:49:38.269Z,97551.50
2022-12-27T07:51:10.178Z,97551.72
2022-12-27T07:52:41.999Z,97552.78
2022-12-27T07:54:13.696Z,97550.16
2022-12-27T07:55:47.142Z,97554.88
2022-12-27T07:57:18.761Z,97554.84
2022-12-27T07:58:51.959Z,97556.72
2022-12-27T08:00:23.769Z,97554.84
2022-12-27T08:02:04.803Z,97550.72
2022-12-27T08:03:36.855Z,97545.09
2022-12-27T08:05:09.133Z,97553.00
2022-12-27T08:06:40.882Z,97546.66
2022-12-27T08:08:13.910Z,97556.94
2022-12-27T08:09:46.332Z,97538.94
2022-12-27T08:11:18.031Z,97556.16
2022-12-27T08:12:49.884Z,97534.44
2022-12-27T08:14:22.948Z,97546.25
2022-12-27T08:15:54.584Z,97546.47
2022-12-27T08:17:29.453Z,97538.81
2022-12-27T08:19:08.045Z,97539.59
2022-12-27T08:20:40.103Z,97542.47
2022-12-27T08:22:11.879Z,97544.81
2022-12-27T08:23:43.618Z,97543.75
2022-12-27T08:25:18.279Z,97550.31
2022-12-27T08:26:49.902Z,97548.69
2022-12-27T08:28:21.768Z,97548.69
2022-12-27T08:29:54.872Z,97548.31
2022-12-27T08:31:26.510Z,97549.06
2022-12-27T08:32:58.159Z,97560.06
2022-12-27T08:34:29.806Z,97554.00
2022-12-27T08:36:15.703Z,97551.34
2022-12-27T08:37:55.748Z,97552.13
2022-12-27T08:39:27.643Z,97553.44
2022-12-27T08:40:59.429Z,97561.38
2022-12-27T08:42:31.104Z,97562.94
2022-12-27T08:44:02.863Z,97562.88
2022-12-27T08:45:36.192Z,97564.47
2022-12-27T08:47:07.945Z,97566.38
2022-12-27T08:48:39.623Z,97568.75
2022-12-27T08:50:11.286Z,97563.69
2022-12-27T08:51:42.914Z,97573.44
2022-12-27T08:53:14.572Z,97565.50
2022-12-27T08:54:46.226Z,97562.34
2022-12-27T08:56:18.005Z,97565.19
2022-12-27T08:57:49.643Z,97566.78
2022-12-27T08:59:21.424Z,97571.22
2022-12-27T09:00:54.755Z,97572.78
2022-12-27T09:02:26.607Z,97577.53
2022-12-27T09:03:58.397Z,97579.16
2022-12-27T09:05:30.015Z,97569.44
2022-12-27T09:07:01.631Z,97571.50
2022-12-27T09:08:33.450Z,97577.31
2022-12-27T09:10:06.351Z,97569.06
2022-12-27T09:11:38.361Z,97579.72
2022-12-27T09:13:10.201Z,97574.50
2022-12-27T09:14:42.055Z,97578.16
2022-12-27T09:16:19.135Z,97578.09
2022-12-27T09:17:50.869Z,97578.03
2022-12-27T09:19:22.498Z,97582.25
2022-12-27T09:20:54.156Z,97585.19
2022-12-27T09:22:26.021Z,97590.47
2022-12-27T09:23:57.730Z,97585.97
2022-12-27T09:25:29.450Z,97597.00
2022-12-27T09:27:01.227Z,97597.06
2022-12-27T09:28:32.952Z,97597.56
2022-12-27T09:30:05.388Z,97596.28
2022-12-27T09:31:38.391Z,97598.56
2022-12-27T09:33:09.983Z,97594.91
2022-12-27T09:34:41.660Z,97593.28
2022-12-27T09:36:14.067Z,97598.34
2022-12-27T09:37:45.673Z,97595.28
2022-12-27T09:39:17.339Z,97606.66
2022-12-27T09:40:52.593Z,97605.78
2022-12-27T09:44:23.086Z,97600.38
2022-12-27T09:45:55.419Z,97605.94
2022-12-27T09:47:29.437Z,97609.63
2022-12-27T09:49:01.036Z,97601.63
2022-12-27T09:50:33.795Z,97601.63
2022-12-27T09:52:07.380Z,97597.88
2022-12-27T09:53:42.034Z,97611.63
2022-12-27T09:55:16.193Z,97607.47
2022-12-27T09:57:18.193Z,97604.34
2022-12-27T09:58:43.232Z,97613.59
2022-12-27T10:00:16.201Z,97600.44
2022-12-27T10:01:49.178Z,97605.78
2022-12-27T10:03:24.879Z,97594.97
2022-12-27T10:06:59.313Z,97594.84
2022-12-27T10:08:37.549Z,97605.38
2022-12-27T10:10:11.912Z,97596.09
2022-12-27T10:11:47.094Z,97597.97
2022-12-27T10:13:26.484Z,97601.81
2022-12-27T10:15:04.233Z,97600.09
2022-12-27T10:16:37.657Z,97592.66
2022-12-27T10:18:14.899Z,97600.47
2022-12-27T10:19:50.348Z,97592.81
2022-12-27T10:21:22.808Z,97587.94
2022-12-27T10:22:55.373Z,97595.38
2022-12-27T10:24:32.431Z,97591.44
2022-12-27T10:26:05.166Z,97586.13
2022-12-27T10:27:37.113Z,97587.06
2022-12-27T10:29:13.655Z,97587.34
2022-12-27T10:30:45.873Z,97596.59
2022-12-27T10:32:17.600Z,97583.63
2022-12-27T10:33:49.809Z,97590.13
2022-12-27T10:35:24.157Z,97585.91
2022-12-27T10:36:56.102Z,97581.59
2022-12-27T10:38:29.743Z,97590.63
2022-12-27T10:40:08.868Z,97591.44
2022-12-27T10:41:50.164Z,97591.22
2022-12-27T10:43:25.907Z,97588.78
2022-12-27T10:45:24.923Z,97579.53
2022-12-27T10:46:56.913Z,97576.75
2022-12-27T10:48:41.514Z,97577.75
2022-12-27T10:50:22.437Z,97570.31
2022-12-27T10:51:55.372Z,97580.56
2022-12-27T10:53:34.769Z,97574.31
2022-12-27T10:55:12.306Z,97581.69
2022-12-27T10:56:47.823Z,97575.53
2022-12-27T10:58:21.053Z,97580.81
2022-12-27T11:00:09.410Z,97580.28
2022-12-27T11:01:41.341Z,97577.00
2022-12-27T11:03:16.481Z,97577.78
2022-12-27T11:04:58.637Z,97577.91
2022-12-27T11:06:31.733Z,97570.66
2022-12-27T11:08:18.639Z,97565.09
2022-12-27T11:09:51.452Z,97569.91
2022-12-27T11:11:24.034Z,97571.41
2022-12-27T11:13:02.757Z,97578.84
2022-12-27T11:14:37.191Z,97576.72
2022-12-27T11:16:13.578Z,97574.25
2022-12-27T11:17:45.945Z,97572.41
2022-12-27T11:19:21.901Z,97577.69
2022-12-27T11:20:54.927Z,97570.41
2022-12-27T11:22:28.157Z,97565.81
2022-12-27T11:24:00.914Z,97559.63
2022-12-27T11:25:32.759Z,97555.34
2022-12-27T11:27:04.386Z,97549.25
2022-12-27T11:28:38.324Z,97557.09
2022-12-27T11:30:21.033Z,97562.91
2022-12-27T11:31:52.789Z,97565.75
2022-12-27T11:33:26.242Z,97558.09
2022-12-27T11:34:57.878Z,97554.91
2022-12-27T11:36:33.911Z,97561.00
2022-12-27T11:38:10.758Z,97557.47
2022-12-27T11:39:50.276Z,97557.75
2022-12-27T11:41:28.093Z,97555.22
2022-12-27T11:43:02.805Z,97553.16
2022-12-27T11:44:36.424Z,97547.94
2022-12-27T11:46:13.251Z,97552.31
2022-12-27T11:47:47.512Z,97552.59
2022-12-27T11:49:21.559Z,97541.84
2022-12-27T11:51:03.565Z,97549.78
2022-12-27T11:52:43.707Z,97544.97
2022-12-27T11:54:34.156Z,97551.06
2022-12-27T11:56:15.050Z,97542.81
2022-12-27T11:58:03.326Z,97535.06
2022-12-27T11:59:43.718Z,97530.16
2022-12-27T12:01:27.845Z,97525.72
2022-12-27T12:03:22.690Z,97530.44
2022-12-27T12:05:21.865Z,97533.59
2022-12-27T12:06:56.057Z,97530.16
2022-12-27T12:08:39.460Z,97522.78
2022-12-27T12:10:18.145Z,97522.00
2022-12-27T12:12:04.684Z,97522.19
2022-12-27T12:14:00.465Z,97522.09
2022-12-27T12:15:41.955Z,97518.97
2022-12-27T12:17:21.429Z,97517.69
2022-12-27T12:19:01.001Z,97520.44
2022-12-27T12:20:43.262Z,97518.19
2022-12-27T12:22:31.641Z,97517.09
2022-12-27T12:24:35.714Z,97514.44
2022-12-27T12:26:17.129Z,97520.16
2022-12-27T12:27:57.861Z,97516.66
2022-12-27T12:29:36.538Z,97514.34
2022-12-27T12:31:14.838Z,97511.22
2022-12-27T12:33:12.157Z,97509.44
2022-12-27T12:34:53.041Z,97508.66
2022-12-27T12:36:41.612Z,97510.41
2022-12-27T12:38:20.101Z,97506.97
2022-12-27T12:40:05.114Z,97516.50
2022-12-27T12:42:00.770Z,97513.06
2022-12-27T12:44:07.128Z,97514.94
2022-12-27T12:45:45.328Z,97507.47
2022-12-27T12:47:30.850Z,97517.09
2022-12-27T12:49:10.172Z,97511.00
2022-12-27T12:50:52.591Z,97508.66
2022-12-27T12:52:35.318Z,97518.47
2022-12-27T12:54:13.137Z,97510.03
2022-12-27T12:55:51.786Z,97513.47
2022-12-27T12:57:35.022Z,97510.50
2022-12-27T12:59:11.225Z,97512.97
2022-12-27T13:00:49.169Z,97512.38
2022-12-27T13:02:49.650Z,97514.34
2022-12-27T13:04:35.098Z,97508.56
2022-12-27T13:06:15.244Z,97499.63
2022-12-27T13:07:53.532Z,97504.34
2022-12-27T13:09:33.104Z,97504.91
2022-12-27T13:11:28.867Z,97504.53
2022-12-27T13:13:07.080Z,97505.41
2022-12-27T13:14:48.514Z,97507.78
2022-12-27T13:16:25.597Z,97506.88
2022-12-27T13:18:03.733Z,97502.66
2022-12-27T13:19:41.588Z,97502.75
2022-12-27T13:21:19.547Z,97497.44
2022-12-27T13:22:58.008Z,97487.81
2022-12-27T13:24:34.150Z,97498.81
2022-12-27T13:26:11.887Z,97493.53
2022-12-27T13:27:47.710Z,97489.00
2022-12-27T13:29:39.044Z,97499.03
2022-12-27T13:31:16.640Z,97494.69
2022-12-27T13:33:00.251Z,97505.31
2022-12-27T13:34:38.672Z,97510.41
2022-12-27T13:36:16.853Z,97502.25
2022-12-27T13:37:53.143Z,97507.28
2022-12-27T13:39:32.511Z,97507.06
2022-12-27T13:41:30.753Z,97499.03
2022-12-27T13:43:13.029Z,97503.75
2022-12-27T13:44:51.148Z,97506.50
2022-12-27T13:46:42.613Z,97497.75
2022-12-27T13:48:20.467Z,97497.44
2022-12-27T13:50:12.511Z,97496.84
2022-12-27T13:51:44.740Z,97506.50
2022-12-27T13:53:27.580Z,97500.00
2022-12-27T13:55:16.552Z,97498.63
2022-12-27T13:56:54.934Z,97499.91
2022-12-27T13:58:59.404Z,97497.53
2022-12-27T14:00:34.779Z,97494.69
2022-12-27T14:02:36.703Z,97497.44
2022-12-27T14:04:23.617Z,97498.22
2022-12-27T14:06:12.026Z,97493.50
2022-12-27T14:07:52.488Z,97494.59
2022-12-27T14:09:40.319Z,97494.59
2022-12-27T14:11:15.500Z,97495.53
2022-12-27T14:13:00.574Z,97501.22
2022-12-27T14:14:32.167Z,97498.56
2022-12-27T14:16:21.355Z,97498.97
2022-12-27T14:18:03.569Z,97499.19
2022-12-27T14:19:59.653Z,97494.69
2022-12-27T14:21:43.217Z,97492.88
2022-12-27T14:23:25.219Z,97494.25
2022-12-27T14:25:26.310Z,97496.81
2022-12-27T14:27:28.777Z,97500.72
2022-12-27T14:29:28.599Z,97504.16
2022-12-27T14:31:24.232Z,97499.34
2022-12-27T14:33:27.441Z,97498.56
2022-12-27T14:35:30.234Z,97491.59
2022-12-27T14:37:35.644Z,97488.53
2022-12-27T14:39:32.395Z,97495.34
2022-12-27T14:41:29.739Z,97488.44
2022-12-27T14:43:23.575Z,97490.81
2022-12-27T14:45:31.611Z,97495.63
2022-12-27T14:47:20.847Z,97480.41
2022-12-27T14:49:27.454Z,97481.97
2022-12-27T14:51:59.442Z,97485.66
2022-12-27T14:53:43.346Z,97488.00
2022-12-27T14:55:34.587Z,97484.38
2022-12-27T14:57:13.251Z,97487.09
2022-12-27T14:59:11.950Z,97484.81
2022-12-27T15:00:57.855Z,97492.69
2022-12-27T15:03:02.335Z,97496.69
2022-12-27T15:05:04.166Z,97493.75
2022-12-27T15:06:57.730Z,97496.41
2022-12-27T15:08:42.931Z,97495.91
2022-12-27T15:10:35.396Z,97494.16
2022-12-27T15:12:22.040Z,97496.31
2022-12-27T15:14:23.614Z,97501.31
2022-12-27T15:16:19.233Z,97497.97
2022-12-27T15:18:20.390Z,97490.88
2022-12-27T15:20:10.004Z,97498.34
2022-12-27T15:21:52.714Z,97504.72
2022-12-27T15:23:28.096Z,97498.16
2022-12-27T15:25:02.635Z,97490.00
2022-12-27T15:26:51.607Z,97496.47
2022-12-27T15:28:29.038Z,97498.31
2022-12-27T15:30:07.917Z,97489.66
2022-12-27T15:31:46.057Z,97490.16
2022-12-27T15:33:23.390Z,97486.03
2022-12-27T15:35:10.441Z,97483.47
2022-12-27T15:36:42.931Z,97478.56
2022-12-27T15:38:15.038Z,97476.00
2022-12-27T15:39:50.042Z,97467.63
2022-12-27T15:41:34.656Z,97470.78
2022-12-27T15:43:09.928Z,97462.97
2022-12-27T15:44:46.619Z,97465.91
2022-12-27T15:46:35.678Z,97466.13
2022-12-27T15:48:31.459Z,97458.63
2022-12-27T15:50:25.997Z,97457.97
2022-12-27T15:51:59.799Z,97463.34
2022-12-27T15:53:41.945Z,97462.44
2022-12-27T15:55:17.655Z,97465.84
2022-12-27T15:56:58.163Z,97468.66
2022-12-27T15:58:30.212Z,97475.31
2022-12-27T16:00:16.400Z,97468.22
2022-12-27T16:01:48.668Z,97467.34
2022-12-27T16:03:34.974Z,97460.00
2022-12-27T16:05:33.941Z,97453.81
2022-12-27T16:07:05.577Z,97467.34
2022-12-27T16:08:39.630Z,97460.16
2022-12-27T16:10:35.814Z,97460.66
2022-12-27T16:12:09.731Z,97464.38
2022-12-27T16:13:48.326Z,97455.63
2022-12-27T16:15:43.140Z,97458.97
2022-12-27T16:17:28.712Z,97458.47
2022-12-27T16:19:16.360Z,97457.84
2022-12-27T16:20:54.048Z,97458.53
2022-12-27T16:22:29.710Z,97460.41
2022-12-27T16:24:03.501Z,97455.34
2022-12-27T16:25:35.668Z,97462.28
2022-12-27T16:27:07.332Z,97459.13
2022-12-27T16:28:39.331Z,97461.97
2022-12-27T16:30:12.414Z,97463.56
2022-12-27T16:31:45.946Z,97460.91
2022-12-27T16:33:34.006Z,97458.34
2022-12-27T16:35:14.295Z,97451.25
2022-12-27T16:36:46.471Z,97448.59
2022-12-27T16:38:20.591Z,97444.97
2022-12-27T16:40:11.864Z,97443.72
2022-12-27T16:42:05.219Z,97441.78
2022-12-27T16:43:44.844Z,97437.97
2022-12-27T16:45:28.697Z,97430.69
2022-12-27T16:47:04.361Z,97444.22
2022-12-27T16:48:43.141Z,97434.19
2022-12-27T16:50:27.930Z,97435.34
2022-12-27T16:52:17.224Z,97434.28
2022-12-27T16:54:02.025Z,97426.53
2022-12-27T16:56:07.974Z,97426.53
2022-12-27T16:57:41.536Z,97420.38
2022-12-27T16:59:52.759Z,97419.94
2022-12-27T17:01:57.423Z,97411.84
2022-12-27T17:03:45.303Z,97416.81
2022-12-27T17:06:21.693Z,97412.63
2022-12-27T17:07:43.191Z,97413.75
2022-12-27T17:09:37.845Z,97412.31
2022-12-27T17:11:26.169Z,97412.25
2022-12-27T17:13:19.298Z,97415.69
2022-12-27T17:14:57.686Z,97413.88
2022-12-27T17:16:31.391Z,97408.09
2022-12-27T17:18:06.565Z,97417.16
2022-12-27T17:19:39.783Z,97418.50
2022-12-27T17:21:15.881Z,97417.25
2022-12-27T17:22:47.525Z,97411.16
2022-12-27T17:24:19.935Z,97412.31
2022-12-27T17:25:52.784Z,97420.72
2022-12-27T17:27:35.051Z,97412.25
2022-12-27T17:29:14.128Z,97415.88
2022-12-27T17:30:47.938Z,97409.50
2022-12-27T17:32:28.881Z,97403.75
2022-12-27T17:34:05.688Z,97405.53
2022-12-27T17:35:44.103Z,97409.53
2022-12-27T17:37:19.917Z,97404.16
2022-12-27T17:38:59.087Z,97395.50
2022-12-27T17:40:33.353Z,97393.81
2022-12-27T17:42:29.212Z,97396.44
2022-12-27T17:44:21.859Z,97397.13
2022-12-27T17:45:55.068Z,97395.63
2022-12-27T17:47:37.112Z,97399.66
2022-12-27T17:49:09.262Z,97392.53
2022-12-27T17:50:42.794Z,97399.84
2022-12-27T17:52:35.642Z,97395.97
2022-12-27T17:54:39.967Z,97392.25
2022-12-27T17:56:35.477Z,97391.47
2022-12-27T17:58:08.540Z,97395.84
2022-12-27T17:59:42.431Z,97396.94
2022-12-27T18:01:14.269Z,97398.97
2022-12-27T18:02:46.051Z,97391.91
2022-12-27T18:04:23.236Z,97391.28
2022-12-27T18:05:54.844Z,97393.91
2022-12-27T18:07:28.727Z,97389.38
2022-12-27T18:09:02.233Z,97384.00
2022-12-27T18:10:34.496Z,97386.63
2022-12-27T18:12:10.841Z,97385.28
2022-12-27T18:13:47.592Z,97386.91
2022-12-27T18:15:22.492Z,97392.75
2022-12-27T18:16:54.179Z,97396.59
2022-12-27T18:18:27.453Z,97403.19
2022-12-27T18:19:59.730Z,97396.59
2022-12-27T18:21:31.529Z,97395.69
2022-12-27T18:23:17.753Z,97391.88
2022-12-27T18:24:49.469Z,97395.31
2022-12-27T18:26:22.305Z,97393.81
2022-12-27T18:27:58.454Z,97388.75
2022-12-27T18:29:30.071Z,97393.16
2022-12-27T18:31:04.405Z,97395.06
2022-12-27T18:32:36.078Z,97387.44
2022-12-27T18:34:14.626Z,97392.66
2022-12-27T18:35:47.197Z,97395.84
2022-12-27T18:37:22.657Z,97392.75
2022-12-27T18:38:58.030Z,97398.31
2022-12-27T18:40:29.691Z,97398.53
2022-12-27T18:42:02.695Z,97383.53
2022-12-27T18:43:34.663Z,97384.41
2022-12-27T18:45:07.347Z,97384.75
2022-12-27T18:46:38.991Z,97383.13
2022-12-27T18:48:12.155Z,97375.19
2022-12-27T18:49:43.807Z,97377.34
2022-12-27T18:51:15.439Z,97379.22
2022-12-27T18:52:51.276Z,97377.31
2022-12-27T18:54:35.162Z,97372.34
2022-12-27T18:56:07.813Z,97371.03
2022-12-27T18:57:39.533Z,97373.94
2022-12-27T18:59:20.442Z,97375.31
2022-12-27T19:01:00.349Z,97375.22
2022-12-27T19:02:33.834Z,97367.84
2022-12-27T19:04:18.415Z,97380.81
2022-12-27T19:05:58.416Z,97382.91
2022-12-27T19:07:30.041Z,97380.88
2022-12-27T19:09:01.774Z,97380.78
2022-12-27T19:10:34.978Z,97384.94
2022-12-27T19:12:09.024Z,97374.72
2022-12-27T19:13:42.427Z,97380.34
2022-12-27T19:15:15.184Z,97383.56
2022-12-27T19:16:48.777Z,97380.63
2022-12-27T19:18:22.547Z,97375.25
2022-12-27T19:19:55.120Z,97378.34
2022-12-27T19:21:30.803Z,97379.66